sensor_id;sensor_type;location;lat;lon;timestamp;pressure;altitude;pressure_sealevel;temperature;humidity
42297;BME280;28985;47.456;19.016;2022-08-19T00:01:39;99794.88;;;23.22;66.43
42297;BME280;28985;47.456;19.016;2022-08-19T00:04:08;99793.06;;;23.15;66.31
42297;BME280;28985;47.456;19.016;2022-08-19T00:06:37;99799.03;;;23.12;67.13
42297;BME280;28985;47.456;19.016;2022-08-19T00:09:07;99792.94;;;23.10;66.00
42297;BME280;28985;47.456;19.016;2022-08-19T00:11:35;99788.88;;;23.01;67.28
42297;BME280;28985;47.456;19.016;2022-08-19T00:14:05;99786.59;;;22.98;68.10
42297;BME280;28985;47.456;19.016;2022-08-19T00:16:32;99788.50;;;22.97;67.91
42297;BME280;28985;47.456;19.016;2022-08-19T00:18:59;99795.06;;;22.96;67.56
42297;BME280;28985;47.456;19.016;2022-08-19T00:21:26;99793.50;;;22.88;68.12
42297;BME280;28985;47.456;19.016;2022-08-19T00:23:54;99789.66;;;22.89;68.96
42297;BME280;28985;47.456;19.016;2022-08-19T00:26:26;99791.94;;;22.92;67.70
42297;BME280;28985;47.456;19.016;2022-08-19T00:28:53;99801.09;;;22.86;68.39
42297;BME280;28985;47.456;19.016;2022-08-19T00:31:20;99796.91;;;22.84;68.54
42297;BME280;28985;47.456;19.016;2022-08-19T00:33:47;99798.63;;;22.85;69.46
42297;BME280;28985;47.456;19.016;2022-08-19T00:36:17;99801.34;;;22.85;69.65
42297;BME280;28985;47.456;19.016;2022-08-19T00:38:44;99801.59;;;22.83;69.31
42297;BME280;28985;47.456;19.016;2022-08-19T00:41:15;99794.78;;;22.86;69.18
42297;BME280;28985;47.456;19.016;2022-08-19T00:44:00;99797.84;;;22.77;68.10
42297;BME280;28985;47.456;19.016;2022-08-19T00:46:27;99795.09;;;22.77;68.26
42297;BME280;28985;47.456;19.016;2022-08-19T00:48:54;99791.78;;;22.75;67.86
42297;BME280;28985;47.456;19.016;2022-08-19T00:51:25;99791.84;;;22.69;68.35
42297;BME280;28985;47.456;19.016;2022-08-19T00:53:55;99783.63;;;22.69;68.58
42297;BME280;28985;47.456;19.016;2022-08-19T00:56:23;99784.47;;;22.69;69.00
42297;BME280;28985;47.456;19.016;2022-08-19T00:58:50;99779.56;;;22.71;68.34
42297;BME280;28985;47.456;19.016;2022-08-19T01:01:16;99781.03;;;22.74;68.32
42297;BME280;28985;47.456;19.016;2022-08-19T01:03:43;99776.16;;;22.76;68.50
42297;BME280;28985;47.456;19.016;2022-08-19T01:06:25;99776.97;;;22.76;68.22
42297;BME280;28985;47.456;19.016;2022-08-19T01:08:53;99778.41;;;22.79;67.42
42297;BME280;28985;47.456;19.016;2022-08-19T01:11:20;99779.84;;;22.70;68.99
42297;BME280;28985;47.456;19.016;2022-08-19T01:13:47;99783.63;;;22.69;68.90
42297;BME280;28985;47.456;19.016;2022-08-19T01:16:17;99781.13;;;22.67;68.49
42297;BME280;28985;47.456;19.016;2022-08-19T01:18:45;99787.06;;;22.64;69.55
42297;BME280;28985;47.456;19.016;2022-08-19T01:21:34;99771.09;;;22.61;69.73
42297;BME280;28985;47.456;19.016;2022-08-19T01:24:03;99773.59;;;22.62;70.56
42297;BME280;28985;47.456;19.016;2022-08-19T01:26:30;99771.31;;;22.59;70.26
42297;BME280;28985;47.456;19.016;2022-08-19T01:28:59;99771.22;;;22.47;69.72
42297;BME280;28985;47.456;19.016;2022-08-19T01:31:30;99777.19;;;22.44;69.12
42297;BME280;28985;47.456;19.016;2022-08-19T01:34:00;99762.84;;;22.42;69.17
42297;BME280;28985;47.456;19.016;2022-08-19T01:36:37;99766.66;;;22.41;70.71
42297;BME280;28985;47.456;19.016;2022-08-19T01:39:08;99760.81;;;22.37;71.49
42297;BME280;28985;47.456;19.016;2022-08-19T01:41:35;99758.44;;;22.41;70.74
42297;BME280;28985;47.456;19.016;2022-08-19T01:44:03;99758.81;;;22.45;70.28
42297;BME280;28985;47.456;19.016;2022-08-19T01:46:45;99764.28;;;22.45;70.03
42297;BME280;28985;47.456;19.016;2022-08-19T01:49:14;99767.50;;;22.42;69.98
42297;BME280;28985;47.456;19.016;2022-08-19T01:51:41;99745.13;;;22.26;68.71
42297;BME280;28985;47.456;19.016;2022-08-19T01:54:10;99735.69;;;22.22;69.66
42297;BME280;28985;47.456;19.016;2022-08-19T01:56:37;99738.31;;;22.17;71.22
42297;BME280;28985;47.456;19.016;2022-08-19T01:59:18;99732.56;;;22.18;70.41
42297;BME280;28985;47.456;19.016;2022-08-19T02:01:45;99729.63;;;22.20;69.45
42297;BME280;28985;47.456;19.016;2022-08-19T02:04:11;99728.16;;;22.17;68.72
42297;BME280;28985;47.456;19.016;2022-08-19T02:06:38;99723.06;;;22.21;68.60
42297;BME280;28985;47.456;19.016;2022-08-19T02:09:06;99722.59;;;22.24;68.18
42297;BME280;28985;47.456;19.016;2022-08-19T02:11:35;99722.97;;;22.27;66.66
42297;BME280;28985;47.456;19.016;2022-08-19T02:14:06;99722.06;;;22.34;65.75
42297;BME280;28985;47.456;19.016;2022-08-19T02:16:33;99718.59;;;22.38;65.84
42297;BME280;28985;47.456;19.016;2022-08-19T02:19:00;99728.66;;;22.45;65.19
42297;BME280;28985;47.456;19.016;2022-08-19T02:21:27;99719.97;;;22.48;65.46
42297;BME280;28985;47.456;19.016;2022-08-19T02:23:55;99720.97;;;22.53;65.67
42297;BME280;28985;47.456;19.016;2022-08-19T02:26:22;99715.84;;;22.57;65.09
42297;BME280;28985;47.456;19.016;2022-08-19T02:28:49;99713.84;;;22.64;64.08
42297;BME280;28985;47.456;19.016;2022-08-19T02:31:18;99705.75;;;22.70;64.43
42297;BME280;28985;47.456;19.016;2022-08-19T02:33:46;99705.88;;;22.75;64.81
42297;BME280;28985;47.456;19.016;2022-08-19T02:36:14;99723.09;;;22.82;64.82
42297;BME280;28985;47.456;19.016;2022-08-19T02:38:42;99731.69;;;22.86;63.20
42297;BME280;28985;47.456;19.016;2022-08-19T02:41:26;99733.13;;;22.88;62.75
42297;BME280;28985;47.456;19.016;2022-08-19T02:43:57;99731.81;;;22.91;63.19
42297;BME280;28985;47.456;19.016;2022-08-19T02:46:46;99729.44;;;22.95;64.28
42297;BME280;28985;47.456;19.016;2022-08-19T02:49:13;99737.19;;;22.98;63.31
42297;BME280;28985;47.456;19.016;2022-08-19T02:51:45;99738.63;;;23.00;63.56
42297;BME280;28985;47.456;19.016;2022-08-19T02:54:13;99736.22;;;23.04;62.86
42297;BME280;28985;47.456;19.016;2022-08-19T02:56:41;99752.25;;;23.07;60.74
42297;BME280;28985;47.456;19.016;2022-08-19T02:59:08;99742.47;;;23.11;61.17
42297;BME280;28985;47.456;19.016;2022-08-19T03:01:38;99750.44;;;23.13;61.20
42297;BME280;28985;47.456;19.016;2022-08-19T03:04:08;99752.16;;;23.14;61.91
42297;BME280;28985;47.456;19.016;2022-08-19T03:06:37;99744.72;;;23.14;61.56
42297;BME280;28985;47.456;19.016;2022-08-19T03:09:04;99742.84;;;23.15;61.32
42297;BME280;28985;47.456;19.016;2022-08-19T03:11:31;99751.06;;;23.15;61.38
42297;BME280;28985;47.456;19.016;2022-08-19T03:13:59;99752.72;;;23.16;61.63
42297;BME280;28985;47.456;19.016;2022-08-19T03:16:28;99756.31;;;23.16;61.88
42297;BME280;28985;47.456;19.016;2022-08-19T03:19:00;99771.72;;;23.17;62.10
42297;BME280;28985;47.456;19.016;2022-08-19T03:21:32;99771.94;;;23.16;62.29
42297;BME280;28985;47.456;19.016;2022-08-19T03:24:02;99771.94;;;23.16;61.87
42297;BME280;28985;47.456;19.016;2022-08-19T03:26:29;99760.13;;;23.15;63.65
42297;BME280;28985;47.456;19.016;2022-08-19T03:29:01;99755.47;;;23.16;63.04
42297;BME280;28985;47.456;19.016;2022-08-19T03:31:31;99767.78;;;23.13;62.19
42297;BME280;28985;47.456;19.016;2022-08-19T03:34:23;99771.59;;;23.12;61.77
42297;BME280;28985;47.456;19.016;2022-08-19T03:36:59;99770.50;;;23.13;61.31
42297;BME280;28985;47.456;19.016;2022-08-19T03:39:27;99776.13;;;23.18;60.26
42297;BME280;28985;47.456;19.016;2022-08-19T03:41:55;99770.28;;;23.15;61.11
42297;BME280;28985;47.456;19.016;2022-08-19T03:44:46;99773.50;;;23.12;61.74
42297;BME280;28985;47.456;19.016;2022-08-19T03:47:12;99778.97;;;23.12;62.18
42297;BME280;28985;47.456;19.016;2022-08-19T03:49:43;99790.81;;;23.12;60.97
42297;BME280;28985;47.456;19.016;2022-08-19T03:52:10;99786.41;;;23.11;61.62
42297;BME280;28985;47.456;19.016;2022-08-19T03:54:37;99791.25;;;23.09;62.04
42297;BME280;28985;47.456;19.016;2022-08-19T03:57:04;99796.53;;;23.11;61.90
42297;BME280;28985;47.456;19.016;2022-08-19T03:59:33;99782.56;;;23.12;62.13
42297;BME280;28985;47.456;19.016;2022-08-19T04:02:06;99784.47;;;23.12;62.52
42297;BME280;28985;47.456;19.016;2022-08-19T04:04:34;99777.53;;;23.09;62.29
42297;BME280;28985;47.456;19.016;2022-08-19T04:07:02;99787.22;;;23.12;61.97
42297;BME280;28985;47.456;19.016;2022-08-19T04:09:28;99793.78;;;23.11;61.73
42297;BME280;28985;47.456;19.016;2022-08-19T04:11:56;99797.38;;;23.11;62.28
42297;BME280;28985;47.456;19.016;2022-08-19T04:14:27;99805.34;;;23.13;61.79
42297;BME280;28985;47.456;19.016;2022-08-19T04:16:57;99814.44;;;23.13;61.90
42297;BME280;28985;47.456;19.016;2022-08-19T04:19:25;99810.03;;;23.12;61.44
42297;BME280;28985;47.456;19.016;2022-08-19T04:21:53;99805.34;;;23.13;61.31
42297;BME280;28985;47.456;19.016;2022-08-19T04:24:21;99801.31;;;23.15;60.82
42297;BME280;28985;47.456;19.016;2022-08-19T04:26:48;99799.41;;;23.16;61.70
42297;BME280;28985;47.456;19.016;2022-08-19T04:29:21;99804.41;;;23.19;61.37
42297;BME280;28985;47.456;19.016;2022-08-19T04:31:49;99806.69;;;23.22;61.26
42297;BME280;28985;47.456;19.016;2022-08-19T04:34:19;99815.53;;;23.24;60.00
42297;BME280;28985;47.456;19.016;2022-08-19T04:36:49;99816.97;;;23.27;60.78
42297;BME280;28985;47.456;19.016;2022-08-19T04:39:23;99826.44;;;23.31;60.22
42297;BME280;28985;47.456;19.016;2022-08-19T04:42:11;99815.81;;;23.35;60.93
42297;BME280;28985;47.456;19.016;2022-08-19T04:45:09;99814.53;;;23.37;60.42
42297;BME280;28985;47.456;19.016;2022-08-19T04:47:40;99815.72;;;23.41;60.97
42297;BME280;28985;47.456;19.016;2022-08-19T04:50:23;99815.84;;;23.46;60.79
42297;BME280;28985;47.456;19.016;2022-08-19T04:52:51;99818.13;;;23.50;60.97
42297;BME280;28985;47.456;19.016;2022-08-19T04:55:17;99814.06;;;23.52;60.13
42297;BME280;28985;47.456;19.016;2022-08-19T04:57:44;99818.81;;;23.57;59.97
42297;BME280;28985;47.456;19.016;2022-08-19T05:00:11;99818.38;;;23.60;60.11
42297;BME280;28985;47.456;19.016;2022-08-19T05:02:38;99826.72;;;23.65;59.75
42297;BME280;28985;47.456;19.016;2022-08-19T05:05:05;99826.25;;;23.68;60.24
42297;BME280;28985;47.456;19.016;2022-08-19T05:07:33;99827.44;;;23.72;61.11
42297;BME280;28985;47.456;19.016;2022-08-19T05:10:00;99822.53;;;23.74;60.40
42297;BME280;28985;47.456;19.016;2022-08-19T05:12:26;99824.59;;;23.79;60.06
42297;BME280;28985;47.456;19.016;2022-08-19T05:14:56;99827.47;;;23.84;60.03
42297;BME280;28985;47.456;19.016;2022-08-19T05:17:27;99826.97;;;23.87;59.89
42297;BME280;28985;47.456;19.016;2022-08-19T05:19:58;99823.50;;;23.92;60.09
42297;BME280;28985;47.456;19.016;2022-08-19T05:22:45;99826.72;;;24.01;59.95
42297;BME280;28985;47.456;19.016;2022-08-19T05:25:16;99827.47;;;24.08;59.58
42297;BME280;28985;47.456;19.016;2022-08-19T05:27:44;99823.13;;;24.12;58.42
42297;BME280;28985;47.456;19.016;2022-08-19T05:30:13;99826.84;;;24.18;59.28
42297;BME280;28985;47.456;19.016;2022-08-19T05:32:39;99825.28;;;24.22;58.49
42297;BME280;28985;47.456;19.016;2022-08-19T05:35:06;99824.56;;;24.27;58.61
42297;BME280;28985;47.456;19.016;2022-08-19T05:37:33;99826.09;;;24.35;57.82
42297;BME280;28985;47.456;19.016;2022-08-19T05:40:00;99834.81;;;24.44;57.93
42297;BME280;28985;47.456;19.016;2022-08-19T05:42:27;99830.25;;;24.49;57.76
42297;BME280;28985;47.456;19.016;2022-08-19T05:44:54;99819.69;;;24.58;57.94
42297;BME280;28985;47.456;19.016;2022-08-19T05:47:22;99816.81;;;24.65;56.84
42297;BME280;28985;47.456;19.016;2022-08-19T05:49:49;99824.06;;;24.71;56.77
42297;BME280;28985;47.456;19.016;2022-08-19T05:52:17;99822.59;;;24.80;56.99
42297;BME280;28985;47.456;19.016;2022-08-19T05:54:45;99819.47;;;24.89;57.37
42297;BME280;28985;47.456;19.016;2022-08-19T05:57:17;99817.66;;;24.94;56.66
42297;BME280;28985;47.456;19.016;2022-08-19T05:59:44;99822.50;;;25.04;56.58
42297;BME280;28985;47.456;19.016;2022-08-19T06:02:18;99825.34;;;25.10;55.44
42297;BME280;28985;47.456;19.016;2022-08-19T06:04:44;99818.50;;;25.12;55.44
42297;BME280;28985;47.456;19.016;2022-08-19T06:07:11;99807.59;;;25.17;55.73
42297;BME280;28985;47.456;19.016;2022-08-19T06:09:39;99812.34;;;25.22;54.92
42297;BME280;28985;47.456;19.016;2022-08-19T06:12:06;99823.19;;;25.29;54.80
42297;BME280;28985;47.456;19.016;2022-08-19T06:14:35;99816.44;;;25.37;54.81
42297;BME280;28985;47.456;19.016;2022-08-19T06:17:07;99815.44;;;25.43;54.32
42297;BME280;28985;47.456;19.016;2022-08-19T06:19:35;99819.72;;;25.51;54.44
42297;BME280;28985;47.456;19.016;2022-08-19T06:22:07;99814.03;;;25.57;54.23
42297;BME280;28985;47.456;19.016;2022-08-19T06:24:34;99818.28;;;25.65;54.37
42297;BME280;28985;47.456;19.016;2022-08-19T06:27:03;99807.34;;;25.70;53.18
42297;BME280;28985;47.456;19.016;2022-08-19T06:29:31;99803.34;;;25.78;53.02
42297;BME280;28985;47.456;19.016;2022-08-19T06:32:00;99791.03;;;25.86;53.95
42297;BME280;28985;47.456;19.016;2022-08-19T06:34:28;99797.22;;;25.93;54.55
42297;BME280;28985;47.456;19.016;2022-08-19T06:36:57;99799.75;;;26.00;53.19
42297;BME280;28985;47.456;19.016;2022-08-19T06:39:29;99799.34;;;26.08;53.46
42297;BME280;28985;47.456;19.016;2022-08-19T06:41:59;99799.97;;;26.16;52.98
42297;BME280;28985;47.456;19.016;2022-08-19T06:44:28;99796.81;;;26.24;52.68
42297;BME280;28985;47.456;19.016;2022-08-19T06:46:57;99790.84;;;26.32;52.30
42297;BME280;28985;47.456;19.016;2022-08-19T06:49:24;99795.06;;;26.40;51.56
42297;BME280;28985;47.456;19.016;2022-08-19T06:51:58;99792.69;;;26.49;52.06
42297;BME280;28985;47.456;19.016;2022-08-19T06:54:27;99794.72;;;26.59;51.67
42297;BME280;28985;47.456;19.016;2022-08-19T06:56:57;99800.63;;;26.67;51.26
42297;BME280;28985;47.456;19.016;2022-08-19T06:59:24;99811.19;;;26.76;50.91
42297;BME280;28985;47.456;19.016;2022-08-19T07:01:56;99822.59;;;26.85;50.69
42297;BME280;28985;47.456;19.016;2022-08-19T07:04:28;99816.66;;;26.93;50.69
42297;BME280;28985;47.456;19.016;2022-08-19T07:07:00;99824.22;;;27.03;50.42
42297;BME280;28985;47.456;19.016;2022-08-19T07:09:46;99824.88;;;27.15;50.32
42297;BME280;28985;47.456;19.016;2022-08-19T07:12:29;99833.25;;;27.26;50.16
42297;BME280;28985;47.456;19.016;2022-08-19T07:14:58;99836.13;;;27.36;50.46
42297;BME280;28985;47.456;19.016;2022-08-19T07:17:26;99827.88;;;27.46;50.60
42297;BME280;28985;47.456;19.016;2022-08-19T07:19:53;99826.91;;;27.58;50.17
42297;BME280;28985;47.456;19.016;2022-08-19T07:22:20;99832.25;;;27.70;50.23
42297;BME280;28985;47.456;19.016;2022-08-19T07:24:52;99835.06;;;27.80;50.06
42297;BME280;28985;47.456;19.016;2022-08-19T07:27:19;99830.47;;;27.91;49.62
42297;BME280;28985;47.456;19.016;2022-08-19T07:29:49;99829.41;;;28.03;48.43
42297;BME280;28985;47.456;19.016;2022-08-19T07:32:23;99833.63;;;28.15;48.56
42297;BME280;28985;47.456;19.016;2022-08-19T07:34:53;99830.69;;;28.27;47.98
42297;BME280;28985;47.456;19.016;2022-08-19T07:37:19;99830.44;;;28.39;47.75
42297;BME280;28985;47.456;19.016;2022-08-19T07:39:46;99822.75;;;28.52;47.21
42297;BME280;28985;47.456;19.016;2022-08-19T07:42:13;99823.34;;;28.64;46.31
42297;BME280;28985;47.456;19.016;2022-08-19T07:44:41;99820.91;;;28.78;46.28
42297;BME280;28985;47.456;19.016;2022-08-19T07:47:16;99809.84;;;28.94;47.00
42297;BME280;28985;47.456;19.016;2022-08-19T07:50:05;99809.63;;;29.11;46.38
42297;BME280;28985;47.456;19.016;2022-08-19T07:52:33;99808.78;;;29.26;44.12
42297;BME280;28985;47.456;19.016;2022-08-19T07:55:01;99816.53;;;29.40;45.00
42297;BME280;28985;47.456;19.016;2022-08-19T07:57:30;99824.31;;;29.53;45.06
42297;BME280;28985;47.456;19.016;2022-08-19T07:59:57;99824.31;;;29.69;44.12
42297;BME280;28985;47.456;19.016;2022-08-19T08:02:23;99823.19;;;29.85;44.13
42297;BME280;28985;47.456;19.016;2022-08-19T08:04:50;99819.81;;;29.99;43.52
42297;BME280;28985;47.456;19.016;2022-08-19T08:07:35;99822.00;;;30.12;42.37
42297;BME280;28985;47.456;19.016;2022-08-19T08:10:20;99816.97;;;30.25;40.56
42297;BME280;28985;47.456;19.016;2022-08-19T08:12:49;99824.72;;;30.38;41.48
42297;BME280;28985;47.456;19.016;2022-08-19T08:15:36;99819.94;;;30.49;37.98
42297;BME280;28985;47.456;19.016;2022-08-19T08:18:10;99826.25;;;30.60;39.82
42297;BME280;28985;47.456;19.016;2022-08-19T08:20:38;99820.41;;;30.72;39.45
42297;BME280;28985;47.456;19.016;2022-08-19T08:23:04;99821.72;;;30.85;38.65
42297;BME280;28985;47.456;19.016;2022-08-19T08:25:54;99824.09;;;31.02;38.29
42297;BME280;28985;47.456;19.016;2022-08-19T08:28:21;99824.56;;;31.15;37.63
42297;BME280;28985;47.456;19.016;2022-08-19T08:30:50;99820.31;;;31.28;37.97
42297;BME280;28985;47.456;19.016;2022-08-19T08:33:21;99824.69;;;31.39;37.65
42297;BME280;28985;47.456;19.016;2022-08-19T08:36:10;99819.78;;;31.55;37.56
42297;BME280;28985;47.456;19.016;2022-08-19T08:38:37;99823.84;;;31.68;36.44
42297;BME280;28985;47.456;19.016;2022-08-19T08:43:58;99810.03;;;31.87;36.12
42297;BME280;28985;47.456;19.016;2022-08-19T08:46:39;99808.50;;;32.00;36.68
42297;BME280;28985;47.456;19.016;2022-08-19T08:49:56;99797.53;;;32.09;35.28
42297;BME280;28985;47.456;19.016;2022-08-19T08:52:32;99792.44;;;32.17;36.10
42297;BME280;28985;47.456;19.016;2022-08-19T08:55:08;99792.94;;;32.24;34.92
42297;BME280;28985;47.456;19.016;2022-08-19T09:00:26;99807.47;;;32.40;36.46
42297;BME280;28985;47.456;19.016;2022-08-19T09:02:55;99802.91;;;32.49;34.81
42297;BME280;28985;47.456;19.016;2022-08-19T09:05:33;99802.78;;;32.60;34.91
42297;BME280;28985;47.456;19.016;2022-08-19T09:08:26;99802.56;;;32.75;34.36
42297;BME280;28985;47.456;19.016;2022-08-19T09:10:57;99806.72;;;32.78;33.82
42297;BME280;28985;47.456;19.016;2022-08-19T09:13:29;99798.16;;;32.88;34.41
42297;BME280;28985;47.456;19.016;2022-08-19T09:16:07;99796.31;;;33.03;34.43
42297;BME280;28985;47.456;19.016;2022-08-19T09:18:45;99789.66;;;33.18;35.58
42297;BME280;28985;47.456;19.016;2022-08-19T09:21:14;99786.00;;;33.37;34.43
42297;BME280;28985;47.456;19.016;2022-08-19T09:23:42;99780.75;;;33.49;34.92
42297;BME280;28985;47.456;19.016;2022-08-19T09:26:12;99788.88;;;33.65;34.59
42297;BME280;28985;47.456;19.016;2022-08-19T09:28:46;99770.25;;;33.74;33.15
42297;BME280;28985;47.456;19.016;2022-08-19T09:31:18;99774.19;;;33.87;32.87
42297;BME280;28985;47.456;19.016;2022-08-19T09:33:46;99764.19;;;34.00;32.55
42297;BME280;28985;47.456;19.016;2022-08-19T09:36:15;99764.19;;;34.14;32.20
42297;BME280;28985;47.456;19.016;2022-08-19T09:38:58;99763.56;;;34.17;30.15
42297;BME280;28985;47.456;19.016;2022-08-19T09:41:27;99769.78;;;34.28;30.81
42297;BME280;28985;47.456;19.016;2022-08-19T09:43:56;99765.09;;;34.37;32.34
42297;BME280;28985;47.456;19.016;2022-08-19T09:46:27;99767.00;;;34.51;32.36
42297;BME280;28985;47.456;19.016;2022-08-19T09:48:57;99761.59;;;34.68;31.30
42297;BME280;28985;47.456;19.016;2022-08-19T09:51:32;99757.13;;;34.81;30.93
42297;BME280;28985;47.456;19.016;2022-08-19T09:54:02;99751.91;;;34.89;29.92
42297;BME280;28985;47.456;19.016;2022-08-19T09:56:30;99744.09;;;35.00;31.08
42297;BME280;28985;47.456;19.016;2022-08-19T09:59:00;99739.59;;;35.13;30.58
42297;BME280;28985;47.456;19.016;2022-08-19T10:01:29;99743.16;;;35.27;30.93
42297;BME280;28985;47.456;19.016;2022-08-19T10:03:58;99741.41;;;35.40;30.30
42297;BME280;28985;47.456;19.016;2022-08-19T10:06:27;99744.75;;;35.51;29.92
42297;BME280;28985;47.456;19.016;2022-08-19T10:09:13;99749.75;;;35.63;29.65
42297;BME280;28985;47.456;19.016;2022-08-19T10:11:41;99741.06;;;35.73;29.01
42297;BME280;28985;47.456;19.016;2022-08-19T10:14:19;99739.75;;;35.71;29.08
42297;BME280;28985;47.456;19.016;2022-08-19T10:16:49;99731.00;;;35.64;28.82
42297;BME280;28985;47.456;19.016;2022-08-19T10:19:18;99735.78;;;35.72;28.91
42297;BME280;28985;47.456;19.016;2022-08-19T10:21:52;99724.31;;;35.82;28.78
42297;BME280;28985;47.456;19.016;2022-08-19T10:24:18;99724.97;;;35.79;27.06
42297;BME280;28985;47.456;19.016;2022-08-19T10:26:46;99724.81;;;35.84;29.19
42297;BME280;28985;47.456;19.016;2022-08-19T10:29:26;99730.78;;;36.00;28.45
42297;BME280;28985;47.456;19.016;2022-08-19T10:32:00;99729.00;;;36.13;28.42
42297;BME280;28985;47.456;19.016;2022-08-19T10:34:29;99732.84;;;36.26;28.55
42297;BME280;28985;47.456;19.016;2022-08-19T10:36:57;99725.09;;;36.32;27.71
42297;BME280;28985;47.456;19.016;2022-08-19T10:39:28;99736.66;;;36.48;27.83
42297;BME280;28985;47.456;19.016;2022-08-19T10:41:56;99733.38;;;36.64;27.72
42297;BME280;28985;47.456;19.016;2022-08-19T10:44:23;99730.41;;;36.78;27.46
42297;BME280;28985;47.456;19.016;2022-08-19T10:46:58;99728.56;;;36.91;28.31
42297;BME280;28985;47.456;19.016;2022-08-19T10:49:25;99729.56;;;37.04;27.85
42297;BME280;28985;47.456;19.016;2022-08-19T10:51:53;99727.06;;;37.20;26.88
42297;BME280;28985;47.456;19.016;2022-08-19T10:54:45;99733.81;;;37.28;26.34
42297;BME280;28985;47.456;19.016;2022-08-19T10:57:34;99736.06;;;37.43;27.38
42297;BME280;28985;47.456;19.016;2022-08-19T11:00:22;99726.59;;;37.57;25.83
42297;BME280;28985;47.456;19.016;2022-08-19T11:02:49;99726.25;;;37.67;25.97
42297;BME280;28985;47.456;19.016;2022-08-19T11:05:17;99717.09;;;37.79;24.79
42297;BME280;28985;47.456;19.016;2022-08-19T11:07:44;99715.22;;;37.92;26.65
42297;BME280;28985;47.456;19.016;2022-08-19T11:10:13;99705.53;;;38.11;26.44
42297;BME280;28985;47.456;19.016;2022-08-19T11:12:46;99713.16;;;38.32;26.28
42297;BME280;28985;47.456;19.016;2022-08-19T11:15:13;99726.00;;;38.41;25.13
42297;BME280;28985;47.456;19.016;2022-08-19T11:17:40;99719.75;;;38.36;23.27
42297;BME280;28985;47.456;19.016;2022-08-19T11:20:09;99716.31;;;38.30;23.76
42297;BME280;28985;47.456;19.016;2022-08-19T11:22:36;99714.44;;;38.34;23.80
42297;BME280;28985;47.456;19.016;2022-08-19T11:25:08;99716.19;;;38.48;24.18
42297;BME280;28985;47.456;19.016;2022-08-19T11:27:40;99713.09;;;38.62;24.38
42297;BME280;28985;47.456;19.016;2022-08-19T11:30:10;99714.47;;;38.77;24.82
42297;BME280;28985;47.456;19.016;2022-08-19T11:32:42;99714.13;;;38.91;22.91
42297;BME280;28985;47.456;19.016;2022-08-19T11:35:15;99708.34;;;38.75;22.19
42297;BME280;28985;47.456;19.016;2022-08-19T11:37:42;99715.19;;;38.86;24.10
42297;BME280;28985;47.456;19.016;2022-08-19T11:40:09;99718.91;;;38.78;21.89
42297;BME280;28985;47.456;19.016;2022-08-19T11:42:36;99718.38;;;38.63;22.71
42297;BME280;28985;47.456;19.016;2022-08-19T11:45:26;99705.28;;;38.67;23.57
42297;BME280;28985;47.456;19.016;2022-08-19T11:47:54;99706.31;;;38.97;23.96
42297;BME280;28985;47.456;19.016;2022-08-19T11:50:22;99703.22;;;39.11;21.68
42297;BME280;28985;47.456;19.016;2022-08-19T11:52:50;99707.22;;;39.22;21.30
42297;BME280;28985;47.456;19.016;2022-08-19T11:55:17;99699.38;;;39.28;21.58
42297;BME280;28985;47.456;19.016;2022-08-19T11:57:43;99695.03;;;39.30;21.62
42297;BME280;28985;47.456;19.016;2022-08-19T12:00:10;99699.03;;;39.29;21.72
42297;BME280;28985;47.456;19.016;2022-08-19T12:02:39;99691.75;;;39.28;21.49
42297;BME280;28985;47.456;19.016;2022-08-19T12:05:06;99696.56;;;39.28;21.77
42297;BME280;28985;47.456;19.016;2022-08-19T12:07:38;99700.78;;;39.21;21.66
42297;BME280;28985;47.456;19.016;2022-08-19T12:10:05;99701.13;;;39.32;22.02
42297;BME280;28985;47.456;19.016;2022-08-19T12:12:33;99706.53;;;39.25;21.02
42297;BME280;28985;47.456;19.016;2022-08-19T12:15:00;99699.56;;;39.10;20.92
42297;BME280;28985;47.456;19.016;2022-08-19T12:17:27;99704.41;;;39.10;22.74
42297;BME280;28985;47.456;19.016;2022-08-19T12:19:54;99701.16;;;38.99;21.89
42297;BME280;28985;47.456;19.016;2022-08-19T12:22:21;99707.84;;;38.94;21.19
42297;BME280;28985;47.456;19.016;2022-08-19T12:24:48;99698.41;;;38.77;22.09
42297;BME280;28985;47.456;19.016;2022-08-19T12:27:17;99705.56;;;38.87;22.56
42297;BME280;28985;47.456;19.016;2022-08-19T12:30:04;99695.50;;;38.86;21.66
42297;BME280;28985;47.456;19.016;2022-08-19T12:32:31;99700.34;;;38.98;22.25
42297;BME280;28985;47.456;19.016;2022-08-19T12:34:58;99707.44;;;39.04;24.14
42297;BME280;28985;47.456;19.016;2022-08-19T12:37:24;99688.31;;;39.10;20.87
42297;BME280;28985;47.456;19.016;2022-08-19T12:39:51;99673.78;;;39.20;23.15
42297;BME280;28985;47.456;19.016;2022-08-19T12:42:18;99671.34;;;39.31;21.43
42297;BME280;28985;47.456;19.016;2022-08-19T12:44:45;99669.91;;;39.25;21.90
42297;BME280;28985;47.456;19.016;2022-08-19T12:47:12;99664.91;;;39.43;21.67
42297;BME280;28985;47.456;19.016;2022-08-19T12:49:41;99670.09;;;39.66;21.95
42297;BME280;28985;47.456;19.016;2022-08-19T12:52:23;99661.63;;;39.79;22.13
42297;BME280;28985;47.456;19.016;2022-08-19T12:54:51;99656.31;;;39.90;22.64
42297;BME280;28985;47.456;19.016;2022-08-19T12:57:21;99659.00;;;40.11;21.12
42297;BME280;28985;47.456;19.016;2022-08-19T13:00:09;99663.63;;;40.32;21.56
42297;BME280;28985;47.456;19.016;2022-08-19T13:02:43;99659.06;;;40.39;20.69
42297;BME280;28985;47.456;19.016;2022-08-19T13:05:14;99665.56;;;40.56;20.72
42297;BME280;28985;47.456;19.016;2022-08-19T13:07:42;99668.13;;;40.61;20.15
42297;BME280;28985;47.456;19.016;2022-08-19T13:10:15;99666.47;;;40.60;19.62
42297;BME280;28985;47.456;19.016;2022-08-19T13:12:46;99664.44;;;40.45;19.79
42297;BME280;28985;47.456;19.016;2022-08-19T13:15:15;99660.59;;;40.37;19.64